Terminal Aerodrome Forecast
Issued by NWS Louisville, KY

Home | Current Version | Previous Version | Text Only | Print | Product List | Glossary On
Versions: 1 2 3 4 5 6 7 8 9 10 11 12 13
000
FTUS43 KLMK 110529
TAFBWG
TAF
KBWG 110529Z 1106/1206 22003KT P6SM SKC
     FM111600 20012G20KT P6SM SCT100
     FM120300 27010KT P6SM SCT040=

USA.gov is the U.S. government's official web portal to all federal, state and local government web resources and services.